sensor_id;sensor_type;location;lat;lon;timestamp;pressure;altitude;pressure_sealevel;temperature
30765;BMP180;494;48.744;10.106;2022-09-16T00:01:25;95027.00;;;14.70
30765;BMP180;494;48.744;10.106;2022-09-16T00:03:55;95170.00;;;14.60
30765;BMP180;494;48.744;10.106;2022-09-16T00:06:26;94964.00;;;14.60
30765;BMP180;494;48.744;10.106;2022-09-16T00:08:58;95039.00;;;14.50
30765;BMP180;494;48.744;10.106;2022-09-16T00:11:31;95053.00;;;13.60
30765;BMP180;494;48.744;10.106;2022-09-16T00:14:00;95051.00;;;14.40
30765;BMP180;494;48.744;10.106;2022-09-16T00:16:29;94893.00;;;14.40
30765;BMP180;494;48.744;10.106;2022-09-16T00:19:00;95141.00;;;14.50
30765;BMP180;494;48.744;10.106;2022-09-16T00:21:30;95143.00;;;14.60
30765;BMP180;494;48.744;10.106;2022-09-16T00:24:00;94840.00;;;14.70
30765;BMP180;494;48.744;10.106;2022-09-16T00:26:29;94934.00;;;14.70
30765;BMP180;494;48.744;10.106;2022-09-16T00:28:57;95144.00;;;14.70
30765;BMP180;494;48.744;10.106;2022-09-16T00:31:25;95148.00;;;14.80
30765;BMP180;494;48.744;10.106;2022-09-16T00:33:54;95147.00;;;14.70
30765;BMP180;494;48.744;10.106;2022-09-16T00:36:22;94784.00;;;14.60
30765;BMP180;494;48.744;10.106;2022-09-16T00:38:52;95143.00;;;14.70
30765;BMP180;494;48.744;10.106;2022-09-16T00:41:25;95105.00;;;14.60
30765;BMP180;494;48.744;10.106;2022-09-16T00:43:57;94915.00;;;14.70
30765;BMP180;494;48.744;10.106;2022-09-16T00:46:35;95065.00;;;14.80
30765;BMP180;494;48.744;10.106;2022-09-16T00:49:11;94560.00;;;14.90
30765;BMP180;494;48.744;10.106;2022-09-16T00:51:44;95125.00;;;14.40
30765;BMP180;494;48.744;10.106;2022-09-16T00:54:17;95124.00;;;14.90
30765;BMP180;494;48.744;10.106;2022-09-16T00:56:52;95120.00;;;14.80
30765;BMP180;494;48.744;10.106;2022-09-16T00:59:26;95130.00;;;14.40
30765;BMP180;494;48.744;10.106;2022-09-16T01:01:57;94954.00;;;13.40
30765;BMP180;494;48.744;10.106;2022-09-16T01:04:31;95042.00;;;14.80
30765;BMP180;494;48.744;10.106;2022-09-16T01:07:02;94872.00;;;14.70
30765;BMP180;494;48.744;10.106;2022-09-16T01:09:31;94814.00;;;14.80
30765;BMP180;494;48.744;10.106;2022-09-16T01:12:01;95034.00;;;14.90
30765;BMP180;494;48.744;10.106;2022-09-16T01:14:29;95157.00;;;14.80
30765;BMP180;494;48.744;10.106;2022-09-16T01:17:26;95163.00;;;14.70
30765;BMP180;494;48.744;10.106;2022-09-16T01:20:24;95120.00;;;14.60
30765;BMP180;494;48.744;10.106;2022-09-16T01:30:43;95120.00;;;14.60
30765;BMP180;494;48.744;10.106;2022-09-16T01:33:25;94960.00;;;14.60
30765;BMP180;494;48.744;10.106;2022-09-16T01:36:23;95115.00;;;14.60
30765;BMP180;494;48.744;10.106;2022-09-16T01:39:08;95111.00;;;13.80
30765;BMP180;494;48.744;10.106;2022-09-16T01:41:55;95118.00;;;14.70
30765;BMP180;494;48.744;10.106;2022-09-16T01:44:38;94929.00;;;14.60
30765;BMP180;494;48.744;10.106;2022-09-16T01:47:20;95129.00;;;14.50
30765;BMP180;494;48.744;10.106;2022-09-16T01:49:59;95118.00;;;14.60
30765;BMP180;494;48.744;10.106;2022-09-16T01:52:44;95115.00;;;14.70
30765;BMP180;494;48.744;10.106;2022-09-16T01:55:21;94938.00;;;14.60
30765;BMP180;494;48.744;10.106;2022-09-16T01:57:57;95125.00;;;14.60
30765;BMP180;494;48.744;10.106;2022-09-16T02:00:27;95127.00;;;14.70
30765;BMP180;494;48.744;10.106;2022-09-16T02:03:02;95155.00;;;14.70
30765;BMP180;494;48.744;10.106;2022-09-16T02:05:37;94908.00;;;14.30
30765;BMP180;494;48.744;10.106;2022-09-16T02:08:11;95163.00;;;14.60
30765;BMP180;494;48.744;10.106;2022-09-16T02:10:46;94940.00;;;14.60
30765;BMP180;494;48.744;10.106;2022-09-16T02:13:20;95114.00;;;14.60
30765;BMP180;494;48.744;10.106;2022-09-16T02:15:51;95186.00;;;14.60
30765;BMP180;494;48.744;10.106;2022-09-16T02:18:27;95015.00;;;14.60
30765;BMP180;494;48.744;10.106;2022-09-16T02:21:00;95140.00;;;14.50
30765;BMP180;494;48.744;10.106;2022-09-16T02:23:35;95113.00;;;14.40
30765;BMP180;494;48.744;10.106;2022-09-16T02:26:12;95116.00;;;14.30
30765;BMP180;494;48.744;10.106;2022-09-16T02:28:46;94835.00;;;14.30
30765;BMP180;494;48.744;10.106;2022-09-16T02:31:20;95117.00;;;14.30
30765;BMP180;494;48.744;10.106;2022-09-16T02:33:56;95119.00;;;14.20
30765;BMP180;494;48.744;10.106;2022-09-16T02:36:28;94897.00;;;14.50
30765;BMP180;494;48.744;10.106;2022-09-16T02:39:03;95121.00;;;14.40
30765;BMP180;494;48.744;10.106;2022-09-16T02:41:35;95118.00;;;14.40
30765;BMP180;494;48.744;10.106;2022-09-16T02:44:04;95115.00;;;14.50
30765;BMP180;494;48.744;10.106;2022-09-16T02:46:40;95116.00;;;14.50
30765;BMP180;494;48.744;10.106;2022-09-16T02:49:25;95120.00;;;14.50
30765;BMP180;494;48.744;10.106;2022-09-16T02:52:03;95123.00;;;14.20
30765;BMP180;494;48.744;10.106;2022-09-16T02:54:41;94837.00;;;14.70
30765;BMP180;494;48.744;10.106;2022-09-16T02:57:13;94836.00;;;14.70
30765;BMP180;494;48.744;10.106;2022-09-16T02:59:43;95118.00;;;14.80
30765;BMP180;494;48.744;10.106;2022-09-16T03:02:12;95114.00;;;14.70
30765;BMP180;494;48.744;10.106;2022-09-16T03:04:42;95107.00;;;14.60
30765;BMP180;494;48.744;10.106;2022-09-16T03:07:11;95150.00;;;14.70
30765;BMP180;494;48.744;10.106;2022-09-16T03:09:44;95109.00;;;14.80
30765;BMP180;494;48.744;10.106;2022-09-16T03:12:44;95060.00;;;14.90
30765;BMP180;494;48.744;10.106;2022-09-16T03:15:48;95110.00;;;14.80
30765;BMP180;494;48.744;10.106;2022-09-16T03:21:34;94908.00;;;15.10
30765;BMP180;494;48.744;10.106;2022-09-16T03:24:12;95100.00;;;15.00
30765;BMP180;494;48.744;10.106;2022-09-16T03:26:51;94848.00;;;15.00
30765;BMP180;494;48.744;10.106;2022-09-16T03:29:31;95104.00;;;15.00
30765;BMP180;494;48.744;10.106;2022-09-16T03:32:11;95095.00;;;15.10
30765;BMP180;494;48.744;10.106;2022-09-16T03:34:49;94858.00;;;15.20
30765;BMP180;494;48.744;10.106;2022-09-16T03:37:21;94912.00;;;15.30
30765;BMP180;494;48.744;10.106;2022-09-16T03:39:55;94781.00;;;15.40
30765;BMP180;494;48.744;10.106;2022-09-16T03:42:24;94870.00;;;15.20
30765;BMP180;494;48.744;10.106;2022-09-16T03:44:53;95097.00;;;15.00
30765;BMP180;494;48.744;10.106;2022-09-16T03:47:21;95088.00;;;15.40
30765;BMP180;494;48.744;10.106;2022-09-16T03:49:50;95091.00;;;15.30
30765;BMP180;494;48.744;10.106;2022-09-16T03:52:20;95098.00;;;15.40
30765;BMP180;494;48.744;10.106;2022-09-16T03:54:49;94888.00;;;15.20
30765;BMP180;494;48.744;10.106;2022-09-16T03:57:17;95096.00;;;15.30
30765;BMP180;494;48.744;10.106;2022-09-16T03:59:46;95096.00;;;15.30
30765;BMP180;494;48.744;10.106;2022-09-16T04:02:14;95007.00;;;15.30
30765;BMP180;494;48.744;10.106;2022-09-16T04:04:43;95092.00;;;15.30
30765;BMP180;494;48.744;10.106;2022-09-16T04:07:11;95011.00;;;14.90
30765;BMP180;494;48.744;10.106;2022-09-16T04:09:41;95093.00;;;15.20
30765;BMP180;494;48.744;10.106;2022-09-16T04:12:10;95090.00;;;15.20
30765;BMP180;494;48.744;10.106;2022-09-16T04:14:38;95090.00;;;15.30
30765;BMP180;494;48.744;10.106;2022-09-16T04:17:07;95084.00;;;15.30
30765;BMP180;494;48.744;10.106;2022-09-16T04:19:35;95085.00;;;15.30
30765;BMP180;494;48.744;10.106;2022-09-16T04:22:04;94883.00;;;15.40
30765;BMP180;494;48.744;10.106;2022-09-16T04:24:32;95079.00;;;15.30
30765;BMP180;494;48.744;10.106;2022-09-16T04:27:02;95081.00;;;15.40
30765;BMP180;494;48.744;10.106;2022-09-16T04:29:31;95117.00;;;15.30
30765;BMP180;494;48.744;10.106;2022-09-16T04:32:00;94889.00;;;15.30
30765;BMP180;494;48.744;10.106;2022-09-16T04:34:28;95064.00;;;15.30
30765;BMP180;494;48.744;10.106;2022-09-16T04:36:58;95090.00;;;15.20
30765;BMP180;494;48.744;10.106;2022-09-16T04:39:26;95066.00;;;14.60
30765;BMP180;494;48.744;10.106;2022-09-16T04:41:55;95075.00;;;15.10
30765;BMP180;494;48.744;10.106;2022-09-16T04:44:25;94980.00;;;15.10
30765;BMP180;494;48.744;10.106;2022-09-16T04:46:56;94964.00;;;14.60
30765;BMP180;494;48.744;10.106;2022-09-16T04:49:24;94845.00;;;14.90
30765;BMP180;494;48.744;10.106;2022-09-16T04:51:53;95092.00;;;14.90
30765;BMP180;494;48.744;10.106;2022-09-16T04:54:21;94850.00;;;14.90
30765;BMP180;494;48.744;10.106;2022-09-16T04:56:49;94852.00;;;14.90
30765;BMP180;494;48.744;10.106;2022-09-16T04:59:18;95088.00;;;15.00
30765;BMP180;494;48.744;10.106;2022-09-16T05:01:48;95087.00;;;14.80
30765;BMP180;494;48.744;10.106;2022-09-16T05:04:17;94901.00;;;14.80
30765;BMP180;494;48.744;10.106;2022-09-16T05:06:45;95086.00;;;14.90
30765;BMP180;494;48.744;10.106;2022-09-16T05:09:13;95100.00;;;14.70
30765;BMP180;494;48.744;10.106;2022-09-16T05:11:42;94421.00;;;14.80
30765;BMP180;494;48.744;10.106;2022-09-16T05:14:14;95087.00;;;15.00
30765;BMP180;494;48.744;10.106;2022-09-16T05:16:45;95022.00;;;15.00
30765;BMP180;494;48.744;10.106;2022-09-16T05:19:15;94886.00;;;15.10
30765;BMP180;494;48.744;10.106;2022-09-16T05:21:44;95090.00;;;15.20
30765;BMP180;494;48.744;10.106;2022-09-16T05:24:13;94878.00;;;15.10
30765;BMP180;494;48.744;10.106;2022-09-16T05:26:42;95147.00;;;15.20
30765;BMP180;494;48.744;10.106;2022-09-16T05:29:14;95108.00;;;15.30
30765;BMP180;494;48.744;10.106;2022-09-16T05:31:44;95120.00;;;15.20
30765;BMP180;494;48.744;10.106;2022-09-16T05:34:18;95083.00;;;15.20
30765;BMP180;494;48.744;10.106;2022-09-16T05:36:48;95095.00;;;15.40
30765;BMP180;494;48.744;10.106;2022-09-16T05:39:21;95095.00;;;15.50
30765;BMP180;494;48.744;10.106;2022-09-16T05:41:54;95097.00;;;15.20
30765;BMP180;494;48.744;10.106;2022-09-16T05:44:24;94933.00;;;14.40
30765;BMP180;494;48.744;10.106;2022-09-16T05:46:53;95105.00;;;15.70
30765;BMP180;494;48.744;10.106;2022-09-16T05:49:23;95085.00;;;15.70
30765;BMP180;494;48.744;10.106;2022-09-16T05:51:52;95082.00;;;15.70
30765;BMP180;494;48.744;10.106;2022-09-16T05:54:21;95094.00;;;15.80
30765;BMP180;494;48.744;10.106;2022-09-16T05:56:51;95121.00;;;15.90
30765;BMP180;494;48.744;10.106;2022-09-16T05:59:20;95090.00;;;15.90
30765;BMP180;494;48.744;10.106;2022-09-16T06:01:49;94766.00;;;16.00
30765;BMP180;494;48.744;10.106;2022-09-16T06:04:18;94781.00;;;15.90
30765;BMP180;494;48.744;10.106;2022-09-16T06:06:47;95088.00;;;15.90
30765;BMP180;494;48.744;10.106;2022-09-16T06:09:19;95083.00;;;15.80
30765;BMP180;494;48.744;10.106;2022-09-16T06:11:50;95080.00;;;15.80
30765;BMP180;494;48.744;10.106;2022-09-16T06:14:28;94616.00;;;15.90
30765;BMP180;494;48.744;10.106;2022-09-16T06:16:56;94835.00;;;16.00
30765;BMP180;494;48.744;10.106;2022-09-16T06:19:25;95077.00;;;15.90
30765;BMP180;494;48.744;10.106;2022-09-16T06:21:55;95029.00;;;15.90
30765;BMP180;494;48.744;10.106;2022-09-16T06:24:24;94988.00;;;15.90
30765;BMP180;494;48.744;10.106;2022-09-16T06:26:52;94725.00;;;15.90
30765;BMP180;494;48.744;10.106;2022-09-16T06:29:21;95094.00;;;15.90
30765;BMP180;494;48.744;10.106;2022-09-16T06:31:49;95090.00;;;16.10
30765;BMP180;494;48.744;10.106;2022-09-16T06:34:17;95058.00;;;16.10
30765;BMP180;494;48.744;10.106;2022-09-16T06:36:46;95077.00;;;16.20
30765;BMP180;494;48.744;10.106;2022-09-16T06:39:16;94934.00;;;16.20
30765;BMP180;494;48.744;10.106;2022-09-16T06:41:45;95065.00;;;16.40
30765;BMP180;494;48.744;10.106;2022-09-16T06:44:13;95074.00;;;16.60
30765;BMP180;494;48.744;10.106;2022-09-16T06:46:41;95070.00;;;16.60
30765;BMP180;494;48.744;10.106;2022-09-16T06:49:10;95069.00;;;16.70
30765;BMP180;494;48.744;10.106;2022-09-16T06:51:39;95072.00;;;16.70
30765;BMP180;494;48.744;10.106;2022-09-16T06:54:09;95127.00;;;16.70
30765;BMP180;494;48.744;10.106;2022-09-16T06:56:39;95076.00;;;16.80
30765;BMP180;494;48.744;10.106;2022-09-16T06:59:09;95066.00;;;16.90
30765;BMP180;494;48.744;10.106;2022-09-16T07:01:39;95071.00;;;17.00
30765;BMP180;494;48.744;10.106;2022-09-16T07:04:10;94940.00;;;17.00
30765;BMP180;494;48.744;10.106;2022-09-16T07:06:39;95075.00;;;17.00
30765;BMP180;494;48.744;10.106;2022-09-16T07:09:27;94774.00;;;16.70
30765;BMP180;494;48.744;10.106;2022-09-16T07:11:58;95086.00;;;16.90
30765;BMP180;494;48.744;10.106;2022-09-16T07:14:27;95118.00;;;16.70
30765;BMP180;494;48.744;10.106;2022-09-16T07:16:58;94960.00;;;16.40
30765;BMP180;494;48.744;10.106;2022-09-16T07:19:28;95089.00;;;16.20
30765;BMP180;494;48.744;10.106;2022-09-16T07:21:56;95086.00;;;15.90
30765;BMP180;494;48.744;10.106;2022-09-16T07:24:26;95092.00;;;15.80
30765;BMP180;494;48.744;10.106;2022-09-16T07:26:55;95090.00;;;15.80
30765;BMP180;494;48.744;10.106;2022-09-16T07:29:25;95097.00;;;15.70
30765;BMP180;494;48.744;10.106;2022-09-16T07:31:53;95026.00;;;15.50
30765;BMP180;494;48.744;10.106;2022-09-16T07:34:22;95107.00;;;15.50
30765;BMP180;494;48.744;10.106;2022-09-16T07:36:50;95123.00;;;15.40
30765;BMP180;494;48.744;10.106;2022-09-16T07:39:19;95121.00;;;15.40
30765;BMP180;494;48.744;10.106;2022-09-16T07:41:47;95123.00;;;15.30
30765;BMP180;494;48.744;10.106;2022-09-16T07:44:18;95122.00;;;15.40
30765;BMP180;494;48.744;10.106;2022-09-16T07:46:48;94738.00;;;15.10
30765;BMP180;494;48.744;10.106;2022-09-16T07:49:17;95128.00;;;15.10
30765;BMP180;494;48.744;10.106;2022-09-16T07:51:46;95182.00;;;15.00
30765;BMP180;494;48.744;10.106;2022-09-16T07:54:17;95131.00;;;15.10
30765;BMP180;494;48.744;10.106;2022-09-16T07:56:46;94383.00;;;15.00
30765;BMP180;494;48.744;10.106;2022-09-16T07:59:17;95137.00;;;15.00
30765;BMP180;494;48.744;10.106;2022-09-16T08:01:48;95137.00;;;14.80
30765;BMP180;494;48.744;10.106;2022-09-16T08:04:18;95141.00;;;14.90
30765;BMP180;494;48.744;10.106;2022-09-16T08:06:47;95132.00;;;14.90
30765;BMP180;494;48.744;10.106;2022-09-16T08:09:16;95130.00;;;14.40
30765;BMP180;494;48.744;10.106;2022-09-16T08:12:05;95130.00;;;13.10
30765;BMP180;494;48.744;10.106;2022-09-16T08:14:37;95191.00;;;14.70
30765;BMP180;494;48.744;10.106;2022-09-16T08:17:07;95002.00;;;14.80
30765;BMP180;494;48.744;10.106;2022-09-16T08:19:35;95129.00;;;14.90
30765;BMP180;494;48.744;10.106;2022-09-16T08:22:05;95131.00;;;14.80
30765;BMP180;494;48.744;10.106;2022-09-16T08:24:33;95027.00;;;14.70
30765;BMP180;494;48.744;10.106;2022-09-16T08:27:02;94980.00;;;14.70
30765;BMP180;494;48.744;10.106;2022-09-16T08:29:31;95158.00;;;14.50
30765;BMP180;494;48.744;10.106;2022-09-16T08:31:59;94709.00;;;14.50
30765;BMP180;494;48.744;10.106;2022-09-16T08:34:29;95141.00;;;14.40
30765;BMP180;494;48.744;10.106;2022-09-16T08:36:58;95130.00;;;14.50
30765;BMP180;494;48.744;10.106;2022-09-16T08:39:26;95140.00;;;14.70
30765;BMP180;494;48.744;10.106;2022-09-16T08:42:28;95132.00;;;14.70
30765;BMP180;494;48.744;10.106;2022-09-16T08:45:14;95141.00;;;14.70
30765;BMP180;494;48.744;10.106;2022-09-16T08:48:08;94866.00;;;14.60
30765;BMP180;494;48.744;10.106;2022-09-16T08:50:43;95140.00;;;15.10
30765;BMP180;494;48.744;10.106;2022-09-16T08:53:20;94526.00;;;15.30
30765;BMP180;494;48.744;10.106;2022-09-16T08:55:50;95122.00;;;15.40
30765;BMP180;494;48.744;10.106;2022-09-16T08:58:22;95124.00;;;15.50
30765;BMP180;494;48.744;10.106;2022-09-16T09:00:56;94585.00;;;15.50
30765;BMP180;494;48.744;10.106;2022-09-16T09:03:36;95124.00;;;15.50
30765;BMP180;494;48.744;10.106;2022-09-16T09:06:26;95123.00;;;15.30
30765;BMP180;494;48.744;10.106;2022-09-16T09:09:12;95131.00;;;15.50
30765;BMP180;494;48.744;10.106;2022-09-16T09:11:48;94937.00;;;14.60
30765;BMP180;494;48.744;10.106;2022-09-16T09:14:32;95129.00;;;15.40
30765;BMP180;494;48.744;10.106;2022-09-16T09:17:15;95141.00;;;15.20
30765;BMP180;494;48.744;10.106;2022-09-16T09:19:58;95136.00;;;14.40
30765;BMP180;494;48.744;10.106;2022-09-16T09:22:50;95128.00;;;15.20
30765;BMP180;494;48.744;10.106;2022-09-16T09:25:33;95133.00;;;14.90
30765;BMP180;494;48.744;10.106;2022-09-16T09:28:21;95130.00;;;14.90
30765;BMP180;494;48.744;10.106;2022-09-16T09:31:04;95133.00;;;15.00
30765;BMP180;494;48.744;10.106;2022-09-16T09:33:47;95136.00;;;14.80
30765;BMP180;494;48.744;10.106;2022-09-16T09:36:51;95131.00;;;14.90
30765;BMP180;494;48.744;10.106;2022-09-16T09:39:45;95126.00;;;15.00
30765;BMP180;494;48.744;10.106;2022-09-16T09:42:22;95131.00;;;15.10
30765;BMP180;494;48.744;10.106;2022-09-16T09:45:00;95133.00;;;14.20
30765;BMP180;494;48.744;10.106;2022-09-16T09:47:35;95142.00;;;15.00
30765;BMP180;494;48.744;10.106;2022-09-16T09:50:16;95142.00;;;14.90
30765;BMP180;494;48.744;10.106;2022-09-16T09:52:57;95139.00;;;14.90
30765;BMP180;494;48.744;10.106;2022-09-16T09:55:32;94990.00;;;15.00
30765;BMP180;494;48.744;10.106;2022-09-16T09:58:23;95022.00;;;14.90
30765;BMP180;494;48.744;10.106;2022-09-16T10:00:53;95123.00;;;15.10
30765;BMP180;494;48.744;10.106;2022-09-16T10:03:25;95020.00;;;14.90
30765;BMP180;494;48.744;10.106;2022-09-16T10:05:54;94699.00;;;15.30
30765;BMP180;494;48.744;10.106;2022-09-16T10:08:27;94974.00;;;15.20
30765;BMP180;494;48.744;10.106;2022-09-16T10:11:00;95123.00;;;15.40
30765;BMP180;494;48.744;10.106;2022-09-16T10:13:30;95111.00;;;15.40
30765;BMP180;494;48.744;10.106;2022-09-16T10:16:10;95116.00;;;15.40
30765;BMP180;494;48.744;10.106;2022-09-16T10:18:40;94965.00;;;15.20
30765;BMP180;494;48.744;10.106;2022-09-16T10:21:13;95005.00;;;15.40
30765;BMP180;494;48.744;10.106;2022-09-16T10:23:53;95124.00;;;15.20
30765;BMP180;494;48.744;10.106;2022-09-16T10:26:25;95127.00;;;14.20
30765;BMP180;494;48.744;10.106;2022-09-16T10:28:58;94919.00;;;15.20
30765;BMP180;494;48.744;10.106;2022-09-16T10:31:34;95117.00;;;15.30
30765;BMP180;494;48.744;10.106;2022-09-16T10:34:14;94974.00;;;15.40
30765;BMP180;494;48.744;10.106;2022-09-16T10:36:44;95110.00;;;15.00
30765;BMP180;494;48.744;10.106;2022-09-16T10:39:23;95129.00;;;15.50
30765;BMP180;494;48.744;10.106;2022-09-16T10:41:54;95112.00;;;15.50
30765;BMP180;494;48.744;10.106;2022-09-16T10:44:26;94503.00;;;15.80
30765;BMP180;494;48.744;10.106;2022-09-16T10:46:59;94426.00;;;16.00
30765;BMP180;494;48.744;10.106;2022-09-16T10:49:39;94883.00;;;16.10
30765;BMP180;494;48.744;10.106;2022-09-16T10:52:19;95000.00;;;16.10
30765;BMP180;494;48.744;10.106;2022-09-16T10:54:48;95139.00;;;16.30
30765;BMP180;494;48.744;10.106;2022-09-16T10:57:25;94965.00;;;15.90
30765;BMP180;494;48.744;10.106;2022-09-16T11:00:11;94972.00;;;16.30
30765;BMP180;494;48.744;10.106;2022-09-16T11:03:06;94633.00;;;16.50
30765;BMP180;494;48.744;10.106;2022-09-16T11:05:53;95111.00;;;16.40
30765;BMP180;494;48.744;10.106;2022-09-16T11:08:40;94989.00;;;16.50
30765;BMP180;494;48.744;10.106;2022-09-16T11:11:27;94903.00;;;16.10
30765;BMP180;494;48.744;10.106;2022-09-16T11:14:12;94954.00;;;16.40
30765;BMP180;494;48.744;10.106;2022-09-16T11:16:59;95121.00;;;16.50
30765;BMP180;494;48.744;10.106;2022-09-16T11:19:56;95032.00;;;16.60
30765;BMP180;494;48.744;10.106;2022-09-16T11:22:35;94925.00;;;16.70
30765;BMP180;494;48.744;10.106;2022-09-16T11:25:33;95048.00;;;16.90
30765;BMP180;494;48.744;10.106;2022-09-16T11:28:36;95122.00;;;17.20
30765;BMP180;494;48.744;10.106;2022-09-16T11:31:23;95128.00;;;17.20
30765;BMP180;494;48.744;10.106;2022-09-16T11:34:04;95126.00;;;17.00
30765;BMP180;494;48.744;10.106;2022-09-16T11:36:45;95027.00;;;16.90
30765;BMP180;494;48.744;10.106;2022-09-16T11:39:39;95124.00;;;16.90
30765;BMP180;494;48.744;10.106;2022-09-16T11:42:20;95125.00;;;16.70
30765;BMP180;494;48.744;10.106;2022-09-16T11:45:03;95118.00;;;16.80
30765;BMP180;494;48.744;10.106;2022-09-16T11:47:57;95123.00;;;16.70
30765;BMP180;494;48.744;10.106;2022-09-16T11:50:43;95124.00;;;15.90
30765;BMP180;494;48.744;10.106;2022-09-16T11:53:43;95111.00;;;16.90
30765;BMP180;494;48.744;10.106;2022-09-16T11:56:20;94887.00;;;16.70
30765;BMP180;494;48.744;10.106;2022-09-16T11:58:52;95122.00;;;16.70
30765;BMP180;494;48.744;10.106;2022-09-16T12:01:31;95116.00;;;16.70
30765;BMP180;494;48.744;10.106;2022-09-16T12:04:11;95137.00;;;16.90
30765;BMP180;494;48.744;10.106;2022-09-16T12:06:57;95024.00;;;17.20
30765;BMP180;494;48.744;10.106;2022-09-16T12:09:37;95105.00;;;17.30
30765;BMP180;494;48.744;10.106;2022-09-16T12:12:13;95081.00;;;17.60
30765;BMP180;494;48.744;10.106;2022-09-16T12:14:47;95116.00;;;17.40
30765;BMP180;494;48.744;10.106;2022-09-16T12:17:23;95101.00;;;17.50
30765;BMP180;494;48.744;10.106;2022-09-16T12:20:01;95100.00;;;17.50
30765;BMP180;494;48.744;10.106;2022-09-16T12:22:35;95050.00;;;17.30
30765;BMP180;494;48.744;10.106;2022-09-16T12:25:12;95111.00;;;17.20
30765;BMP180;494;48.744;10.106;2022-09-16T12:27:48;95114.00;;;16.90
30765;BMP180;494;48.744;10.106;2022-09-16T12:30:20;95116.00;;;17.20
30765;BMP180;494;48.744;10.106;2022-09-16T12:32:59;95192.00;;;17.20
30765;BMP180;494;48.744;10.106;2022-09-16T12:35:35;95115.00;;;17.40
30765;BMP180;494;48.744;10.106;2022-09-16T12:38:12;94963.00;;;17.40
30765;BMP180;494;48.744;10.106;2022-09-16T12:41:05;95119.00;;;17.70
30765;BMP180;494;48.744;10.106;2022-09-16T12:44:00;95012.00;;;17.70
30765;BMP180;494;48.744;10.106;2022-09-16T12:50:36;95114.00;;;19.20
30765;BMP180;494;48.744;10.106;2022-09-16T12:53:59;95090.00;;;19.80
30765;BMP180;494;48.744;10.106;2022-09-16T12:56:53;95090.00;;;20.30
30765;BMP180;494;48.744;10.106;2022-09-16T13:00:04;95081.00;;;20.40
30765;BMP180;494;48.744;10.106;2022-09-16T13:02:36;95075.00;;;20.10
30765;BMP180;494;48.744;10.106;2022-09-16T13:05:17;95074.00;;;21.00
30765;BMP180;494;48.744;10.106;2022-09-16T13:07:54;95082.00;;;21.70
30765;BMP180;494;48.744;10.106;2022-09-16T13:10:30;94941.00;;;22.60
30765;BMP180;494;48.744;10.106;2022-09-16T13:13:29;95096.00;;;23.50
30765;BMP180;494;48.744;10.106;2022-09-16T13:16:02;95092.00;;;23.50
30765;BMP180;494;48.744;10.106;2022-09-16T13:18:41;95071.00;;;24.20
30765;BMP180;494;48.744;10.106;2022-09-16T13:21:23;94823.00;;;24.10
30765;BMP180;494;48.744;10.106;2022-09-16T13:24:02;95127.00;;;24.30
30765;BMP180;494;48.744;10.106;2022-09-16T13:26:40;95072.00;;;25.00
30765;BMP180;494;48.744;10.106;2022-09-16T13:29:38;95121.00;;;24.10
30765;BMP180;494;48.744;10.106;2022-09-16T13:32:28;95123.00;;;23.30
30765;BMP180;494;48.744;10.106;2022-09-16T13:35:22;95098.00;;;22.30
30765;BMP180;494;48.744;10.106;2022-09-16T13:37:53;95099.00;;;21.80
30765;BMP180;494;48.744;10.106;2022-09-16T13:40:26;95096.00;;;22.30
30765;BMP180;494;48.744;10.106;2022-09-16T13:43:12;95102.00;;;22.40
30765;BMP180;494;48.744;10.106;2022-09-16T13:45:42;95116.00;;;22.60
30765;BMP180;494;48.744;10.106;2022-09-16T13:48:16;94965.00;;;23.20
30765;BMP180;494;48.744;10.106;2022-09-16T13:50:52;95061.00;;;24.40
30765;BMP180;494;48.744;10.106;2022-09-16T13:53:27;95109.00;;;26.10
30765;BMP180;494;48.744;10.106;2022-09-16T13:56:06;94793.00;;;25.70
30765;BMP180;494;48.744;10.106;2022-09-16T13:58:49;94975.00;;;25.90
30765;BMP180;494;48.744;10.106;2022-09-16T14:01:31;95094.00;;;26.70
30765;BMP180;494;48.744;10.106;2022-09-16T14:04:41;95095.00;;;26.60
30765;BMP180;494;48.744;10.106;2022-09-16T14:07:29;95099.00;;;25.20
30765;BMP180;494;48.744;10.106;2022-09-16T14:10:10;95100.00;;;24.00
30765;BMP180;494;48.744;10.106;2022-09-16T14:12:57;95102.00;;;23.30
30765;BMP180;494;48.744;10.106;2022-09-16T14:15:32;95099.00;;;23.20
30765;BMP180;494;48.744;10.106;2022-09-16T14:18:02;95086.00;;;25.00
30765;BMP180;494;48.744;10.106;2022-09-16T14:20:32;95079.00;;;25.60
30765;BMP180;494;48.744;10.106;2022-09-16T14:23:03;95112.00;;;25.90
30765;BMP180;494;48.744;10.106;2022-09-16T14:25:34;95032.00;;;26.60
30765;BMP180;494;48.744;10.106;2022-09-16T14:28:17;95066.00;;;27.70
30765;BMP180;494;48.744;10.106;2022-09-16T14:30:49;95083.00;;;27.80
30765;BMP180;494;48.744;10.106;2022-09-16T14:33:24;94780.00;;;27.80
30765;BMP180;494;48.744;10.106;2022-09-16T14:35:55;95089.00;;;28.80
30765;BMP180;494;48.744;10.106;2022-09-16T14:38:36;95135.00;;;28.30
30765;BMP180;494;48.744;10.106;2022-09-16T14:41:23;95087.00;;;29.20
30765;BMP180;494;48.744;10.106;2022-09-16T14:44:01;95087.00;;;29.20
30765;BMP180;494;48.744;10.106;2022-09-16T14:46:40;94930.00;;;29.30
30765;BMP180;494;48.744;10.106;2022-09-16T14:49:10;95087.00;;;29.30
30765;BMP180;494;48.744;10.106;2022-09-16T14:51:44;95009.00;;;28.40
30765;BMP180;494;48.744;10.106;2022-09-16T14:54:17;95059.00;;;29.00
30765;BMP180;494;48.744;10.106;2022-09-16T14:57:05;94908.00;;;28.70
30765;BMP180;494;48.744;10.106;2022-09-16T14:59:38;95090.00;;;28.10
30765;BMP180;494;48.744;10.106;2022-09-16T15:02:17;95028.00;;;26.50
30765;BMP180;494;48.744;10.106;2022-09-16T15:04:52;95102.00;;;27.20
30765;BMP180;494;48.744;10.106;2022-09-16T15:07:25;95094.00;;;27.20
30765;BMP180;494;48.744;10.106;2022-09-16T15:09:59;95092.00;;;26.90
30765;BMP180;494;48.744;10.106;2022-09-16T15:12:32;95089.00;;;25.70
30765;BMP180;494;48.744;10.106;2022-09-16T15:15:14;94963.00;;;24.30
30765;BMP180;494;48.744;10.106;2022-09-16T15:17:51;95090.00;;;24.80
30765;BMP180;494;48.744;10.106;2022-09-16T15:20:28;95085.00;;;24.00
30765;BMP180;494;48.744;10.106;2022-09-16T15:22:59;95008.00;;;24.10
30765;BMP180;494;48.744;10.106;2022-09-16T15:25:32;95085.00;;;24.10